sensor_id;sensor_type;location;lat;lon;timestamp;temperature;humidity
8947;DHT22;4508;48.790;9.028;2023-03-01T00:02:04;-2.30;99.90
8947;DHT22;4508;48.790;9.028;2023-03-01T00:04:32;-2.20;99.90
8947;DHT22;4508;48.790;9.028;2023-03-01T00:06:59;-2.10;99.90
8947;DHT22;4508;48.790;9.028;2023-03-01T00:09:27;-2.20;99.90
8947;DHT22;4508;48.790;9.028;2023-03-01T00:11:53;-2.20;99.90
8947;DHT22;4508;48.790;9.028;2023-03-01T00:14:20;-2.20;99.90
8947;DHT22;4508;48.790;9.028;2023-03-01T00:16:47;-2.20;99.90
8947;DHT22;4508;48.790;9.028;2023-03-01T00:19:16;-2.10;99.90
8947;DHT22;4508;48.790;9.028;2023-03-01T00:21:43;-2.20;99.90
8947;DHT22;4508;48.790;9.028;2023-03-01T00:24:10;-2.20;99.90
8947;DHT22;4508;48.790;9.028;2023-03-01T00:26:38;-2.20;99.90
8947;DHT22;4508;48.790;9.028;2023-03-01T00:29:05;-2.20;99.90
8947;DHT22;4508;48.790;9.028;2023-03-01T00:31:32;-2.20;99.90
8947;DHT22;4508;48.790;9.028;2023-03-01T00:34:01;-2.20;99.90
8947;DHT22;4508;48.790;9.028;2023-03-01T00:36:29;-2.30;99.90
8947;DHT22;4508;48.790;9.028;2023-03-01T00:38:56;-2.40;99.90
8947;DHT22;4508;48.790;9.028;2023-03-01T00:41:23;-2.40;99.90
8947;DHT22;4508;48.790;9.028;2023-03-01T00:43:53;-2.50;99.90
8947;DHT22;4508;48.790;9.028;2023-03-01T00:46:22;-2.30;99.90
8947;DHT22;4508;48.790;9.028;2023-03-01T00:48:49;-2.10;99.90
8947;DHT22;4508;48.790;9.028;2023-03-01T00:51:18;-2.50;99.90
8947;DHT22;4508;48.790;9.028;2023-03-01T00:53:45;-2.60;99.90
8947;DHT22;4508;48.790;9.028;2023-03-01T00:56:14;-2.70;99.90
8947;DHT22;4508;48.790;9.028;2023-03-01T00:58:41;-2.60;99.90
8947;DHT22;4508;48.790;9.028;2023-03-01T01:01:11;-2.60;99.90
8947;DHT22;4508;48.790;9.028;2023-03-01T01:03:47;-2.50;99.90
8947;DHT22;4508;48.790;9.028;2023-03-01T01:06:16;-2.30;99.90
8947;DHT22;4508;48.790;9.028;2023-03-01T01:08:42;-2.60;99.90
8947;DHT22;4508;48.790;9.028;2023-03-01T01:11:09;-2.50;99.90
8947;DHT22;4508;48.790;9.028;2023-03-01T01:13:36;-2.60;99.90
8947;DHT22;4508;48.790;9.028;2023-03-01T01:16:04;-2.50;99.90
8947;DHT22;4508;48.790;9.028;2023-03-01T01:18:32;-2.60;99.90
8947;DHT22;4508;48.790;9.028;2023-03-01T01:21:04;-2.80;99.90
8947;DHT22;4508;48.790;9.028;2023-03-01T01:23:31;-2.80;99.90
8947;DHT22;4508;48.790;9.028;2023-03-01T01:26:03;-2.60;99.90
8947;DHT22;4508;48.790;9.028;2023-03-01T01:28:30;-2.60;99.90
8947;DHT22;4508;48.790;9.028;2023-03-01T01:30:56;-2.60;99.90
8947;DHT22;4508;48.790;9.028;2023-03-01T01:33:23;-2.60;99.90
8947;DHT22;4508;48.790;9.028;2023-03-01T01:35:51;-2.60;99.90
8947;DHT22;4508;48.790;9.028;2023-03-01T01:38:18;-2.70;99.90
8947;DHT22;4508;48.790;9.028;2023-03-01T01:40:44;-2.60;99.90
8947;DHT22;4508;48.790;9.028;2023-03-01T01:43:18;-2.60;99.90
8947;DHT22;4508;48.790;9.028;2023-03-01T01:45:45;-2.60;99.90
8947;DHT22;4508;48.790;9.028;2023-03-01T01:48:16;-2.60;99.90
8947;DHT22;4508;48.790;9.028;2023-03-01T01:50:45;-2.60;99.90
8947;DHT22;4508;48.790;9.028;2023-03-01T01:53:18;-2.50;99.90
8947;DHT22;4508;48.790;9.028;2023-03-01T01:55:49;-2.70;99.90
8947;DHT22;4508;48.790;9.028;2023-03-01T01:58:19;-2.70;99.90
8947;DHT22;4508;48.790;9.028;2023-03-01T02:00:47;-2.80;99.90
8947;DHT22;4508;48.790;9.028;2023-03-01T02:03:17;-2.80;99.90
8947;DHT22;4508;48.790;9.028;2023-03-01T02:05:49;-2.70;99.90
8947;DHT22;4508;48.790;9.028;2023-03-01T02:08:20;-2.70;99.90
8947;DHT22;4508;48.790;9.028;2023-03-01T02:10:48;-2.70;99.90
8947;DHT22;4508;48.790;9.028;2023-03-01T02:13:16;-2.70;99.90
8947;DHT22;4508;48.790;9.028;2023-03-01T02:15:43;-2.60;99.90
8947;DHT22;4508;48.790;9.028;2023-03-01T02:18:11;-2.60;99.90
8947;DHT22;4508;48.790;9.028;2023-03-01T02:20:48;-2.60;99.90
8947;DHT22;4508;48.790;9.028;2023-03-01T02:23:18;-2.60;99.90
8947;DHT22;4508;48.790;9.028;2023-03-01T02:25:52;-2.50;99.90
8947;DHT22;4508;48.790;9.028;2023-03-01T02:28:31;-2.60;99.90
8947;DHT22;4508;48.790;9.028;2023-03-01T02:30:58;-2.50;99.90
8947;DHT22;4508;48.790;9.028;2023-03-01T02:33:43;-2.50;99.90
8947;DHT22;4508;48.790;9.028;2023-03-01T02:36:12;-2.30;99.90
8947;DHT22;4508;48.790;9.028;2023-03-01T02:38:40;-2.40;99.90
8947;DHT22;4508;48.790;9.028;2023-03-01T02:41:08;-2.30;99.90
8947;DHT22;4508;48.790;9.028;2023-03-01T02:43:38;-2.40;99.90
8947;DHT22;4508;48.790;9.028;2023-03-01T02:46:08;-2.20;99.90
8947;DHT22;4508;48.790;9.028;2023-03-01T02:48:43;-2.20;99.90
8947;DHT22;4508;48.790;9.028;2023-03-01T02:51:27;-2.10;99.90
8947;DHT22;4508;48.790;9.028;2023-03-01T02:54:06;-2.20;99.90
8947;DHT22;4508;48.790;9.028;2023-03-01T02:56:34;-1.90;99.90
8947;DHT22;4508;48.790;9.028;2023-03-01T02:59:03;-1.90;99.90
8947;DHT22;4508;48.790;9.028;2023-03-01T03:01:30;-2.00;99.90
8947;DHT22;4508;48.790;9.028;2023-03-01T03:04:02;-1.80;99.90
8947;DHT22;4508;48.790;9.028;2023-03-01T03:06:29;-1.80;99.90
8947;DHT22;4508;48.790;9.028;2023-03-01T03:08:56;-1.90;99.90
8947;DHT22;4508;48.790;9.028;2023-03-01T03:11:23;-1.90;99.90
8947;DHT22;4508;48.790;9.028;2023-03-01T03:13:50;-2.00;99.90
8947;DHT22;4508;48.790;9.028;2023-03-01T03:16:19;-2.10;99.90
8947;DHT22;4508;48.790;9.028;2023-03-01T03:18:46;-2.00;99.90
8947;DHT22;4508;48.790;9.028;2023-03-01T03:21:13;-1.90;99.90
8947;DHT22;4508;48.790;9.028;2023-03-01T03:23:39;-1.80;99.90
8947;DHT22;4508;48.790;9.028;2023-03-01T03:26:06;-1.90;99.90
8947;DHT22;4508;48.790;9.028;2023-03-01T03:28:34;-1.80;99.90
8947;DHT22;4508;48.790;9.028;2023-03-01T03:31:01;-1.70;99.90
8947;DHT22;4508;48.790;9.028;2023-03-01T03:33:30;-1.90;99.90
8947;DHT22;4508;48.790;9.028;2023-03-01T03:35:57;-1.90;99.90
8947;DHT22;4508;48.790;9.028;2023-03-01T03:38:24;-1.80;99.90
8947;DHT22;4508;48.790;9.028;2023-03-01T03:40:52;-1.70;99.90
8947;DHT22;4508;48.790;9.028;2023-03-01T03:43:26;-1.80;99.90
8947;DHT22;4508;48.790;9.028;2023-03-01T03:45:53;-1.80;99.90
8947;DHT22;4508;48.790;9.028;2023-03-01T03:48:22;-1.70;99.90
8947;DHT22;4508;48.790;9.028;2023-03-01T03:50:52;-1.80;99.90
8947;DHT22;4508;48.790;9.028;2023-03-01T03:53:19;-1.80;99.90
8947;DHT22;4508;48.790;9.028;2023-03-01T03:55:46;-1.80;99.90
8947;DHT22;4508;48.790;9.028;2023-03-01T03:58:15;-1.70;99.90
8947;DHT22;4508;48.790;9.028;2023-03-01T04:00:45;-1.60;99.90
8947;DHT22;4508;48.790;9.028;2023-03-01T04:03:13;-1.70;99.90
8947;DHT22;4508;48.790;9.028;2023-03-01T04:05:41;-1.70;99.90
8947;DHT22;4508;48.790;9.028;2023-03-01T04:08:09;-1.70;99.90
8947;DHT22;4508;48.790;9.028;2023-03-01T04:10:38;-1.70;99.90
8947;DHT22;4508;48.790;9.028;2023-03-01T04:13:06;-1.60;99.90
8947;DHT22;4508;48.790;9.028;2023-03-01T04:15:33;-1.50;99.90
8947;DHT22;4508;48.790;9.028;2023-03-01T04:18:00;-1.50;99.90
8947;DHT22;4508;48.790;9.028;2023-03-01T04:20:29;-1.40;99.90
8947;DHT22;4508;48.790;9.028;2023-03-01T04:23:01;-1.40;99.90
8947;DHT22;4508;48.790;9.028;2023-03-01T04:25:37;-1.40;99.90
8947;DHT22;4508;48.790;9.028;2023-03-01T04:28:05;-1.40;99.90
8947;DHT22;4508;48.790;9.028;2023-03-01T04:30:32;-1.50;99.90
8947;DHT22;4508;48.790;9.028;2023-03-01T04:33:02;-1.40;99.90
8947;DHT22;4508;48.790;9.028;2023-03-01T04:35:29;-1.50;99.90
8947;DHT22;4508;48.790;9.028;2023-03-01T04:37:56;-1.60;99.90
8947;DHT22;4508;48.790;9.028;2023-03-01T04:40:23;-1.50;99.90
8947;DHT22;4508;48.790;9.028;2023-03-01T04:42:51;-1.50;99.90
8947;DHT22;4508;48.790;9.028;2023-03-01T04:45:18;-1.60;99.90
8947;DHT22;4508;48.790;9.028;2023-03-01T04:47:46;-1.60;99.90
8947;DHT22;4508;48.790;9.028;2023-03-01T04:50:15;-1.60;99.90
8947;DHT22;4508;48.790;9.028;2023-03-01T04:52:42;-1.50;99.90
8947;DHT22;4508;48.790;9.028;2023-03-01T04:55:10;-1.50;99.90
8947;DHT22;4508;48.790;9.028;2023-03-01T04:57:37;-1.60;99.90
8947;DHT22;4508;48.790;9.028;2023-03-01T05:00:07;-1.60;99.90
8947;DHT22;4508;48.790;9.028;2023-03-01T05:02:46;-1.60;99.90
8947;DHT22;4508;48.790;9.028;2023-03-01T05:05:13;-1.50;99.90
8947;DHT22;4508;48.790;9.028;2023-03-01T05:07:40;-1.50;99.90
8947;DHT22;4508;48.790;9.028;2023-03-01T05:10:08;-1.50;99.90
8947;DHT22;4508;48.790;9.028;2023-03-01T05:12:35;-1.60;99.90
8947;DHT22;4508;48.790;9.028;2023-03-01T05:15:03;-1.70;99.90
8947;DHT22;4508;48.790;9.028;2023-03-01T05:17:33;-1.70;99.90
8947;DHT22;4508;48.790;9.028;2023-03-01T05:20:00;-1.70;99.90
8947;DHT22;4508;48.790;9.028;2023-03-01T05:22:31;-1.70;99.90
8947;DHT22;4508;48.790;9.028;2023-03-01T05:24:57;-1.60;99.90
8947;DHT22;4508;48.790;9.028;2023-03-01T05:27:24;-1.60;99.90
8947;DHT22;4508;48.790;9.028;2023-03-01T05:29:51;-1.60;99.90
8947;DHT22;4508;48.790;9.028;2023-03-01T05:32:17;-1.70;99.90
8947;DHT22;4508;48.790;9.028;2023-03-01T05:34:45;-1.70;99.90
8947;DHT22;4508;48.790;9.028;2023-03-01T05:37:12;-1.70;99.90
8947;DHT22;4508;48.790;9.028;2023-03-01T05:39:39;-1.60;99.90
8947;DHT22;4508;48.790;9.028;2023-03-01T05:42:10;-1.70;99.90
8947;DHT22;4508;48.790;9.028;2023-03-01T05:44:38;-1.70;99.90
8947;DHT22;4508;48.790;9.028;2023-03-01T05:47:04;-1.60;99.90
8947;DHT22;4508;48.790;9.028;2023-03-01T05:49:31;-1.60;99.90
8947;DHT22;4508;48.790;9.028;2023-03-01T05:51:59;-1.50;99.90
8947;DHT22;4508;48.790;9.028;2023-03-01T05:54:26;-1.50;99.90
8947;DHT22;4508;48.790;9.028;2023-03-01T05:56:53;-1.50;99.90
8947;DHT22;4508;48.790;9.028;2023-03-01T05:59:19;-1.60;99.90
8947;DHT22;4508;48.790;9.028;2023-03-01T06:01:46;-1.60;99.90
8947;DHT22;4508;48.790;9.028;2023-03-01T06:04:13;-1.70;99.90
8947;DHT22;4508;48.790;9.028;2023-03-01T06:06:39;-1.80;99.90
8947;DHT22;4508;48.790;9.028;2023-03-01T06:09:07;-1.70;99.90
8947;DHT22;4508;48.790;9.028;2023-03-01T06:11:35;-1.80;99.90
8947;DHT22;4508;48.790;9.028;2023-03-01T06:14:02;-1.80;99.90
8947;DHT22;4508;48.790;9.028;2023-03-01T06:16:30;-1.70;99.90
8947;DHT22;4508;48.790;9.028;2023-03-01T06:18:56;-1.80;99.90
8947;DHT22;4508;48.790;9.028;2023-03-01T06:21:23;-1.70;99.90
8947;DHT22;4508;48.790;9.028;2023-03-01T06:23:50;-1.80;99.90
8947;DHT22;4508;48.790;9.028;2023-03-01T06:26:18;-1.70;99.90
8947;DHT22;4508;48.790;9.028;2023-03-01T06:28:45;-1.70;99.90
8947;DHT22;4508;48.790;9.028;2023-03-01T06:31:12;-1.80;99.90
8947;DHT22;4508;48.790;9.028;2023-03-01T06:33:39;-1.80;99.90
8947;DHT22;4508;48.790;9.028;2023-03-01T06:36:06;-1.80;99.90
8947;DHT22;4508;48.790;9.028;2023-03-01T06:38:33;-1.80;99.90
8947;DHT22;4508;48.790;9.028;2023-03-01T06:41:00;-1.80;99.90
8947;DHT22;4508;48.790;9.028;2023-03-01T06:43:28;-1.90;99.90
8947;DHT22;4508;48.790;9.028;2023-03-01T06:45:55;-1.90;99.90
8947;DHT22;4508;48.790;9.028;2023-03-01T06:48:22;-2.00;99.90
8947;DHT22;4508;48.790;9.028;2023-03-01T06:50:48;-2.00;99.90
8947;DHT22;4508;48.790;9.028;2023-03-01T06:53:15;-2.00;99.90
8947;DHT22;4508;48.790;9.028;2023-03-01T06:55:42;-1.90;99.90
8947;DHT22;4508;48.790;9.028;2023-03-01T06:58:09;-1.90;99.90
8947;DHT22;4508;48.790;9.028;2023-03-01T07:00:37;-1.80;99.90
8947;DHT22;4508;48.790;9.028;2023-03-01T07:03:06;-1.80;99.90
8947;DHT22;4508;48.790;9.028;2023-03-01T07:05:33;-1.70;99.90
8947;DHT22;4508;48.790;9.028;2023-03-01T07:08:00;-1.60;99.90
8947;DHT22;4508;48.790;9.028;2023-03-01T07:10:27;-1.40;99.90
8947;DHT22;4508;48.790;9.028;2023-03-01T07:12:55;-1.30;99.90
8947;DHT22;4508;48.790;9.028;2023-03-01T07:15:22;-1.00;99.90
8947;DHT22;4508;48.790;9.028;2023-03-01T07:17:50;-0.80;99.90
8947;DHT22;4508;48.790;9.028;2023-03-01T07:20:18;-0.50;99.90
8947;DHT22;4508;48.790;9.028;2023-03-01T07:22:47;-0.70;99.90
8947;DHT22;4508;48.790;9.028;2023-03-01T07:25:14;-0.30;99.90
8947;DHT22;4508;48.790;9.028;2023-03-01T07:27:41;-0.10;99.90
8947;DHT22;4508;48.790;9.028;2023-03-01T07:30:09;0.30;99.90
8947;DHT22;4508;48.790;9.028;2023-03-01T07:32:35;1.30;99.90
8947;DHT22;4508;48.790;9.028;2023-03-01T07:35:04;1.40;99.90
8947;DHT22;4508;48.790;9.028;2023-03-01T07:37:31;2.10;99.90
8947;DHT22;4508;48.790;9.028;2023-03-01T07:39:57;3.00;99.90
8947;DHT22;4508;48.790;9.028;2023-03-01T07:42:24;3.50;99.90
8947;DHT22;4508;48.790;9.028;2023-03-01T07:44:51;3.60;99.90
8947;DHT22;4508;48.790;9.028;2023-03-01T07:47:17;3.10;99.90
8947;DHT22;4508;48.790;9.028;2023-03-01T07:49:44;3.30;99.90
8947;DHT22;4508;48.790;9.028;2023-03-01T07:52:12;2.70;99.90
8947;DHT22;4508;48.790;9.028;2023-03-01T07:54:39;3.30;99.90
8947;DHT22;4508;48.790;9.028;2023-03-01T07:57:08;3.30;99.90
8947;DHT22;4508;48.790;9.028;2023-03-01T07:59:35;3.90;99.90
8947;DHT22;4508;48.790;9.028;2023-03-01T08:02:02;3.70;99.90
8947;DHT22;4508;48.790;9.028;2023-03-01T08:04:28;4.20;99.90
8947;DHT22;4508;48.790;9.028;2023-03-01T08:06:55;4.20;99.90
8947;DHT22;4508;48.790;9.028;2023-03-01T08:09:23;4.00;99.90
8947;DHT22;4508;48.790;9.028;2023-03-01T08:11:50;4.30;99.90
8947;DHT22;4508;48.790;9.028;2023-03-01T08:14:16;4.40;99.90
8947;DHT22;4508;48.790;9.028;2023-03-01T08:16:43;4.30;99.90
8947;DHT22;4508;48.790;9.028;2023-03-01T08:19:11;4.50;99.90
8947;DHT22;4508;48.790;9.028;2023-03-01T08:21:38;4.20;99.90
8947;DHT22;4508;48.790;9.028;2023-03-01T08:24:06;3.90;99.90
8947;DHT22;4508;48.790;9.028;2023-03-01T08:26:34;4.60;99.90
8947;DHT22;4508;48.790;9.028;2023-03-01T08:29:01;4.70;99.90
8947;DHT22;4508;48.790;9.028;2023-03-01T08:31:31;4.80;99.90
8947;DHT22;4508;48.790;9.028;2023-03-01T08:34:03;4.90;99.90
8947;DHT22;4508;48.790;9.028;2023-03-01T08:36:31;6.20;99.90
8947;DHT22;4508;48.790;9.028;2023-03-01T08:38:58;5.40;99.90
8947;DHT22;4508;48.790;9.028;2023-03-01T08:41:25;7.10;99.90
8947;DHT22;4508;48.790;9.028;2023-03-01T08:43:53;7.10;99.90
8947;DHT22;4508;48.790;9.028;2023-03-01T08:46:24;6.70;99.90
8947;DHT22;4508;48.790;9.028;2023-03-01T08:48:50;7.20;99.90
8947;DHT22;4508;48.790;9.028;2023-03-01T08:51:19;6.00;99.90
8947;DHT22;4508;48.790;9.028;2023-03-01T08:53:46;6.10;99.90
8947;DHT22;4508;48.790;9.028;2023-03-01T08:56:14;6.40;99.90
8947;DHT22;4508;48.790;9.028;2023-03-01T08:58:43;6.00;99.90
8947;DHT22;4508;48.790;9.028;2023-03-01T09:01:14;5.60;99.90
8947;DHT22;4508;48.790;9.028;2023-03-01T09:03:41;5.40;99.90
8947;DHT22;4508;48.790;9.028;2023-03-01T09:06:09;5.40;99.90
8947;DHT22;4508;48.790;9.028;2023-03-01T09:08:36;5.40;99.90
8947;DHT22;4508;48.790;9.028;2023-03-01T09:11:04;6.40;99.90
8947;DHT22;4508;48.790;9.028;2023-03-01T09:13:31;7.40;99.90
8947;DHT22;4508;48.790;9.028;2023-03-01T09:15:57;6.30;99.90
8947;DHT22;4508;48.790;9.028;2023-03-01T09:18:26;6.20;99.90
8947;DHT22;4508;48.790;9.028;2023-03-01T09:20:53;6.20;99.90
8947;DHT22;4508;48.790;9.028;2023-03-01T09:23:21;5.80;99.90
8947;DHT22;4508;48.790;9.028;2023-03-01T09:25:48;6.30;99.90
8947;DHT22;4508;48.790;9.028;2023-03-01T09:28:14;6.30;99.90
8947;DHT22;4508;48.790;9.028;2023-03-01T09:30:41;7.40;99.90
8947;DHT22;4508;48.790;9.028;2023-03-01T09:33:07;7.40;99.90
8947;DHT22;4508;48.790;9.028;2023-03-01T09:35:41;7.80;99.90
8947;DHT22;4508;48.790;9.028;2023-03-01T09:38:12;7.50;99.90
8947;DHT22;4508;48.790;9.028;2023-03-01T09:40:42;7.20;99.90
8947;DHT22;4508;48.790;9.028;2023-03-01T09:43:18;7.30;99.90
8947;DHT22;4508;48.790;9.028;2023-03-01T09:45:48;7.80;99.90
8947;DHT22;4508;48.790;9.028;2023-03-01T09:48:18;7.00;99.90
8947;DHT22;4508;48.790;9.028;2023-03-01T09:50:48;7.10;99.90
8947;DHT22;4508;48.790;9.028;2023-03-01T09:53:17;7.10;99.90
8947;DHT22;4508;48.790;9.028;2023-03-01T09:55:48;6.90;99.90
8947;DHT22;4508;48.790;9.028;2023-03-01T09:58:34;7.00;99.90
8947;DHT22;4508;48.790;9.028;2023-03-01T10:01:10;7.10;99.90
8947;DHT22;4508;48.790;9.028;2023-03-01T10:03:43;7.10;99.90
8947;DHT22;4508;48.790;9.028;2023-03-01T10:06:15;7.50;99.90
8947;DHT22;4508;48.790;9.028;2023-03-01T10:08:50;7.60;99.90
8947;DHT22;4508;48.790;9.028;2023-03-01T10:11:21;7.80;99.90
8947;DHT22;4508;48.790;9.028;2023-03-01T10:13:55;7.10;99.90
8947;DHT22;4508;48.790;9.028;2023-03-01T10:16:28;7.10;99.90
8947;DHT22;4508;48.790;9.028;2023-03-01T10:19:02;7.00;99.90
8947;DHT22;4508;48.790;9.028;2023-03-01T10:21:31;7.30;99.90
8947;DHT22;4508;48.790;9.028;2023-03-01T10:24:10;6.60;99.90
8947;DHT22;4508;48.790;9.028;2023-03-01T10:26:47;6.80;99.90
8947;DHT22;4508;48.790;9.028;2023-03-01T10:29:15;7.40;99.90
8947;DHT22;4508;48.790;9.028;2023-03-01T10:31:43;7.40;99.90
8947;DHT22;4508;48.790;9.028;2023-03-01T10:34:13;6.80;99.90
8947;DHT22;4508;48.790;9.028;2023-03-01T10:36:42;7.90;99.90
8947;DHT22;4508;48.790;9.028;2023-03-01T10:39:14;8.50;99.90
8947;DHT22;4508;48.790;9.028;2023-03-01T10:42:03;8.30;99.90
8947;DHT22;4508;48.790;9.028;2023-03-01T10:44:43;8.60;99.90
8947;DHT22;4508;48.790;9.028;2023-03-01T10:47:19;8.40;99.90
8947;DHT22;4508;48.790;9.028;2023-03-01T10:49:58;7.60;99.90
8947;DHT22;4508;48.790;9.028;2023-03-01T10:52:33;8.30;99.90
8947;DHT22;4508;48.790;9.028;2023-03-01T10:55:02;7.60;99.90
8947;DHT22;4508;48.790;9.028;2023-03-01T10:57:34;8.70;99.90
8947;DHT22;4508;48.790;9.028;2023-03-01T11:00:21;8.60;99.90
8947;DHT22;4508;48.790;9.028;2023-03-01T11:02:50;8.20;99.90
8947;DHT22;4508;48.790;9.028;2023-03-01T11:05:21;7.80;99.90
8947;DHT22;4508;48.790;9.028;2023-03-01T11:07:51;8.90;99.90
8947;DHT22;4508;48.790;9.028;2023-03-01T11:10:21;8.70;99.90
8947;DHT22;4508;48.790;9.028;2023-03-01T11:12:50;9.60;99.90
8947;DHT22;4508;48.790;9.028;2023-03-01T11:15:25;9.00;99.90
8947;DHT22;4508;48.790;9.028;2023-03-01T11:17:53;8.40;99.90
8947;DHT22;4508;48.790;9.028;2023-03-01T11:20:26;10.10;99.90
8947;DHT22;4508;48.790;9.028;2023-03-01T11:22:56;9.50;99.90
8947;DHT22;4508;48.790;9.028;2023-03-01T11:25:26;9.10;99.90
8947;DHT22;4508;48.790;9.028;2023-03-01T11:27:54;9.40;99.90
8947;DHT22;4508;48.790;9.028;2023-03-01T11:30:24;9.30;99.90
8947;DHT22;4508;48.790;9.028;2023-03-01T11:33:01;9.20;99.90
8947;DHT22;4508;48.790;9.028;2023-03-01T11:35:30;9.10;99.90
8947;DHT22;4508;48.790;9.028;2023-03-01T11:38:09;9.10;99.90
8947;DHT22;4508;48.790;9.028;2023-03-01T11:40:41;8.50;99.90
8947;DHT22;4508;48.790;9.028;2023-03-01T11:43:15;8.90;99.90
8947;DHT22;4508;48.790;9.028;2023-03-01T11:45:53;8.90;99.90
8947;DHT22;4508;48.790;9.028;2023-03-01T11:48:34;8.90;99.90
8947;DHT22;4508;48.790;9.028;2023-03-01T11:51:09;10.70;99.90
8947;DHT22;4508;48.790;9.028;2023-03-01T11:54:02;9.60;99.90
8947;DHT22;4508;48.790;9.028;2023-03-01T11:56:34;9.60;99.90
8947;DHT22;4508;48.790;9.028;2023-03-01T11:59:17;8.50;99.90
8947;DHT22;4508;48.790;9.028;2023-03-01T12:01:58;8.50;99.90
8947;DHT22;4508;48.790;9.028;2023-03-01T12:04:44;9.00;99.90
8947;DHT22;4508;48.790;9.028;2023-03-01T12:07:17;9.80;99.90
8947;DHT22;4508;48.790;9.028;2023-03-01T12:10:19;9.70;99.90
8947;DHT22;4508;48.790;9.028;2023-03-01T12:12:58;9.30;99.90
8947;DHT22;4508;48.790;9.028;2023-03-01T12:15:46;9.90;99.90
8947;DHT22;4508;48.790;9.028;2023-03-01T12:18:49;10.00;99.90
8947;DHT22;4508;48.790;9.028;2023-03-01T12:21:27;9.10;99.90
8947;DHT22;4508;48.790;9.028;2023-03-01T12:24:11;9.60;99.90
8947;DHT22;4508;48.790;9.028;2023-03-01T12:26:47;9.80;99.90
8947;DHT22;4508;48.790;9.028;2023-03-01T12:29:24;9.40;99.90
8947;DHT22;4508;48.790;9.028;2023-03-01T12:32:21;10.00;99.90
8947;DHT22;4508;48.790;9.028;2023-03-01T12:35:07;10.50;99.90
8947;DHT22;4508;48.790;9.028;2023-03-01T12:37:45;9.50;99.90
8947;DHT22;4508;48.790;9.028;2023-03-01T12:43:11;10.00;99.90
8947;DHT22;4508;48.790;9.028;2023-03-01T12:45:47;10.50;99.90
8947;DHT22;4508;48.790;9.028;2023-03-01T12:48:27;9.10;99.90
8947;DHT22;4508;48.790;9.028;2023-03-01T12:51:01;9.10;99.90
8947;DHT22;4508;48.790;9.028;2023-03-01T12:53:32;9.90;99.90
8947;DHT22;4508;48.790;9.028;2023-03-01T12:56:04;10.50;99.90
8947;DHT22;4508;48.790;9.028;2023-03-01T12:58:35;9.80;99.90
8947;DHT22;4508;48.790;9.028;2023-03-01T13:01:09;9.80;99.90
8947;DHT22;4508;48.790;9.028;2023-03-01T13:03:55;9.50;99.90
8947;DHT22;4508;48.790;9.028;2023-03-01T13:06:28;10.20;99.90
8947;DHT22;4508;48.790;9.028;2023-03-01T13:09:01;10.00;99.90
8947;DHT22;4508;48.790;9.028;2023-03-01T13:11:30;10.00;99.90
8947;DHT22;4508;48.790;9.028;2023-03-01T13:14:35;10.20;99.90
8947;DHT22;4508;48.790;9.028;2023-03-01T13:17:02;9.80;99.90
8947;DHT22;4508;48.790;9.028;2023-03-01T13:19:29;9.80;99.90
8947;DHT22;4508;48.790;9.028;2023-03-01T13:21:58;9.80;99.90
8947;DHT22;4508;48.790;9.028;2023-03-01T13:24:27;9.40;99.90
8947;DHT22;4508;48.790;9.028;2023-03-01T13:27:21;9.90;99.90
8947;DHT22;4508;48.790;9.028;2023-03-01T13:29:52;10.00;99.90
8947;DHT22;4508;48.790;9.028;2023-03-01T13:32:21;10.10;99.90
8947;DHT22;4508;48.790;9.028;2023-03-01T13:35:39;9.80;99.90
8947;DHT22;4508;48.790;9.028;2023-03-01T13:38:38;10.10;99.90
8947;DHT22;4508;48.790;9.028;2023-03-01T13:41:07;10.30;99.90
8947;DHT22;4508;48.790;9.028;2023-03-01T13:43:35;10.20;99.90
8947;DHT22;4508;48.790;9.028;2023-03-01T13:46:09;10.20;99.90
8947;DHT22;4508;48.790;9.028;2023-03-01T13:48:38;9.90;99.90
8947;DHT22;4508;48.790;9.028;2023-03-01T13:51:08;9.60;99.90
8947;DHT22;4508;48.790;9.028;2023-03-01T13:53:39;9.90;99.90
8947;DHT22;4508;48.790;9.028;2023-03-01T13:56:09;9.70;99.90
8947;DHT22;4508;48.790;9.028;2023-03-01T13:58:47;10.00;99.90
8947;DHT22;4508;48.790;9.028;2023-03-01T14:01:24;10.10;99.90
8947;DHT22;4508;48.790;9.028;2023-03-01T14:03:52;10.30;99.90
8947;DHT22;4508;48.790;9.028;2023-03-01T14:06:21;9.50;99.90
8947;DHT22;4508;48.790;9.028;2023-03-01T14:08:50;9.30;99.90
8947;DHT22;4508;48.790;9.028;2023-03-01T14:14:29;9.70;99.90
8947;DHT22;4508;48.790;9.028;2023-03-01T14:17:11;9.10;99.90
8947;DHT22;4508;48.790;9.028;2023-03-01T14:19:40;9.30;99.90
8947;DHT22;4508;48.790;9.028;2023-03-01T14:22:16;9.50;99.90
8947;DHT22;4508;48.790;9.028;2023-03-01T14:24:47;9.30;99.90
8947;DHT22;4508;48.790;9.028;2023-03-01T14:27:16;9.10;99.90
8947;DHT22;4508;48.790;9.028;2023-03-01T14:29:43;8.90;99.90
8947;DHT22;4508;48.790;9.028;2023-03-01T14:32:18;8.80;99.90
8947;DHT22;4508;48.790;9.028;2023-03-01T14:34:48;8.90;99.90
8947;DHT22;4508;48.790;9.028;2023-03-01T14:37:19;9.10;99.90
8947;DHT22;4508;48.790;9.028;2023-03-01T14:39:48;8.70;99.90
8947;DHT22;4508;48.790;9.028;2023-03-01T14:42:16;8.30;99.90
8947;DHT22;4508;48.790;9.028;2023-03-01T14:44:45;8.00;99.90
8947;DHT22;4508;48.790;9.028;2023-03-01T14:47:16;8.30;99.90
8947;DHT22;4508;48.790;9.028;2023-03-01T14:49:57;8.40;99.90
8947;DHT22;4508;48.790;9.028;2023-03-01T14:52:31;8.20;99.90
8947;DHT22;4508;48.790;9.028;2023-03-01T14:55:02;8.20;99.90
8947;DHT22;4508;48.790;9.028;2023-03-01T14:57:29;8.30;99.90
8947;DHT22;4508;48.790;9.028;2023-03-01T14:59:58;7.80;99.90
8947;DHT22;4508;48.790;9.028;2023-03-01T15:02:28;7.80;99.90
8947;DHT22;4508;48.790;9.028;2023-03-01T15:04:58;8.10;99.90
8947;DHT22;4508;48.790;9.028;2023-03-01T15:07:29;7.70;99.90
8947;DHT22;4508;48.790;9.028;2023-03-01T15:09:57;7.90;99.90
8947;DHT22;4508;48.790;9.028;2023-03-01T15:12:34;7.90;99.90
8947;DHT22;4508;48.790;9.028;2023-03-01T15:15:01;7.90;99.90
8947;DHT22;4508;48.790;9.028;2023-03-01T15:17:32;7.90;99.90
8947;DHT22;4508;48.790;9.028;2023-03-01T15:20:00;7.70;99.90
8947;DHT22;4508;48.790;9.028;2023-03-01T15:22:27;7.80;99.90
8947;DHT22;4508;48.790;9.028;2023-03-01T15:24:54;7.70;99.90
8947;DHT22;4508;48.790;9.028;2023-03-01T15:27:23;7.40;99.90
8947;DHT22;4508;48.790;9.028;2023-03-01T15:29:53;7.30;99.90
8947;DHT22;4508;48.790;9.028;2023-03-01T15:32:28;7.20;99.90
8947;DHT22;4508;48.790;9.028;2023-03-01T15:34:57;7.20;99.90
8947;DHT22;4508;48.790;9.028;2023-03-01T15:37:39;7.20;99.90
8947;DHT22;4508;48.790;9.028;2023-03-01T15:40:18;7.20;99.90
8947;DHT22;4508;48.790;9.028;2023-03-01T15:42:45;7.10;99.90
8947;DHT22;4508;48.790;9.028;2023-03-01T15:45:22;7.10;99.90
8947;DHT22;4508;48.790;9.028;2023-03-01T15:47:51;7.10;99.90
8947;DHT22;4508;48.790;9.028;2023-03-01T15:50:22;6.80;99.90
8947;DHT22;4508;48.790;9.028;2023-03-01T15:52:49;6.80;99.90
8947;DHT22;4508;48.790;9.028;2023-03-01T15:55:18;6.60;99.90
8947;DHT22;4508;48.790;9.028;2023-03-01T15:57:46;6.70;99.90
8947;DHT22;4508;48.790;9.028;2023-03-01T16:00:14;6.60;99.90
8947;DHT22;4508;48.790;9.028;2023-03-01T16:02:41;6.60;99.90
8947;DHT22;4508;48.790;9.028;2023-03-01T16:05:19;6.50;99.90
8947;DHT22;4508;48.790;9.028;2023-03-01T16:07:47;6.40;99.90
8947;DHT22;4508;48.790;9.028;2023-03-01T16:10:14;6.50;99.90
8947;DHT22;4508;48.790;9.028;2023-03-01T16:12:41;6.50;99.90
8947;DHT22;4508;48.790;9.028;2023-03-01T16:15:13;6.40;99.90
8947;DHT22;4508;48.790;9.028;2023-03-01T16:17:41;6.30;99.90
8947;DHT22;4508;48.790;9.028;2023-03-01T16:20:09;6.10;99.90
8947;DHT22;4508;48.790;9.028;2023-03-01T16:22:36;6.10;99.90
8947;DHT22;4508;48.790;9.028;2023-03-01T16:25:05;6.00;99.90
8947;DHT22;4508;48.790;9.028;2023-03-01T16:27:33;5.90;99.90
8947;DHT22;4508;48.790;9.028;2023-03-01T16:30:00;5.90;99.90
8947;DHT22;4508;48.790;9.028;2023-03-01T16:32:26;5.80;99.90
8947;DHT22;4508;48.790;9.028;2023-03-01T16:34:53;5.80;99.90
8947;DHT22;4508;48.790;9.028;2023-03-01T16:37:20;5.80;99.90